createdAt,value
2023-05-14T00:01:47.029Z,18.13
2023-05-14T00:11:48.864Z,14.15
2023-05-14T00:21:50.785Z,15.45
2023-05-14T00:31:53.361Z,17.92
2023-05-14T00:41:55.337Z,18.95
2023-05-14T00:51:57.996Z,22.75
2023-05-14T01:01:59.987Z,18.05
2023-05-14T01:12:18.373Z,25.77
2023-05-14T01:22:20.442Z,23.35
2023-05-14T01:32:24.537Z,18.35
2023-05-14T01:42:27.033Z,14.88
2023-05-14T01:52:28.997Z,21.55
2023-05-14T02:02:30.938Z,19.15
2023-05-14T02:12:33.354Z,16.20
2023-05-14T02:22:35.812Z,21.58
2023-05-14T02:32:37.864Z,17.13
2023-05-14T02:42:39.785Z,18.55
2023-05-14T02:52:41.683Z,18.00
2023-05-14T03:02:43.731Z,28.77
2023-05-14T03:12:47.093Z,22.80
2023-05-14T03:22:49.304Z,23.58
2023-05-14T03:32:51.157Z,20.73
2023-05-14T03:42:52.974Z,24.50
2023-05-14T03:52:54.917Z,26.33
2023-05-14T04:02:57.563Z,15.85
2023-05-14T04:12:59.535Z,19.73
2023-05-14T04:23:06.389Z,17.83
2023-05-14T04:33:08.294Z,21.27
2023-05-14T04:43:10.169Z,22.65
2023-05-14T04:53:12.101Z,19.52
2023-05-14T05:03:14.028Z,22.92
2023-05-14T05:13:16.013Z,36.45
2023-05-14T05:23:17.942Z,30.92
2023-05-14T05:33:19.880Z,24.17
2023-05-14T05:43:21.882Z,25.27
2023-05-14T05:53:23.976Z,19.50
2023-05-14T06:03:25.998Z,20.60
2023-05-14T06:13:27.997Z,20.83
2023-05-14T06:23:30.653Z,20.67
2023-05-14T06:33:32.483Z,16.70
2023-05-14T06:43:34.456Z,15.68
2023-05-14T06:53:36.332Z,15.38
2023-05-14T07:03:38.164Z,15.13
2023-05-14T07:13:40.599Z,13.23
2023-05-14T07:23:42.556Z,15.48
2023-05-14T07:33:44.375Z,10.20
2023-05-14T07:43:46.277Z,10.43
2023-05-14T07:53:48.153Z,13.88
2023-05-14T08:03:50.595Z,8.65
2023-05-14T08:13:52.576Z,8.82
2023-05-14T08:23:54.479Z,6.88
2023-05-14T08:33:56.627Z,6.07
2023-05-14T08:44:18.312Z,9.93
2023-05-14T08:54:20.935Z,10.40
2023-05-14T09:04:24.753Z,9.40
2023-05-14T09:14:27.235Z,7.30
2023-05-14T09:24:29.064Z,11.25
2023-05-14T09:34:35.395Z,5.63
2023-05-14T09:44:37.338Z,6.57
2023-05-14T09:54:39.961Z,5.00
2023-05-14T10:04:43.015Z,6.68
2023-05-14T10:14:48.046Z,6.97
2023-05-14T10:24:51.025Z,8.00
2023-05-14T10:34:54.059Z,6.35
2023-05-14T10:45:01.947Z,6.95
2023-05-14T10:55:07.392Z,4.13
2023-05-14T11:05:11.494Z,7.30
2023-05-14T11:15:22.384Z,6.38
2023-05-14T11:25:24.263Z,6.72
2023-05-14T11:35:26.199Z,7.38
2023-05-14T11:45:28.338Z,7.13
2023-05-14T11:55:30.371Z,5.70
2023-05-14T12:05:32.201Z,12.52
2023-05-14T12:15:34.108Z,6.85
2023-05-14T12:25:37.953Z,4.47
2023-05-14T12:35:41.425Z,8.00
2023-05-14T12:45:43.419Z,13.90
2023-05-14T12:55:45.203Z,7.45
2023-05-14T13:05:47.150Z,4.43
2023-05-14T13:15:49.440Z,3.30
2023-05-14T13:25:51.330Z,3.83
2023-05-14T13:35:53.188Z,3.38
2023-05-14T13:45:55.450Z,4.97
2023-05-14T13:55:57.290Z,5.13
2023-05-14T14:05:59.168Z,4.93
2023-05-14T14:16:01.037Z,5.47
2023-05-14T14:26:02.925Z,4.68
2023-05-14T14:36:05.542Z,6.93
2023-05-14T14:46:07.456Z,7.88
2023-05-14T14:56:09.448Z,5.85
2023-05-14T15:06:11.589Z,8.23
2023-05-14T15:16:13.844Z,10.02
2023-05-14T15:26:15.687Z,5.95
2023-05-14T15:36:17.626Z,6.32
2023-05-14T15:46:19.598Z,7.93
2023-05-14T15:56:22.493Z,10.90
2023-05-14T16:06:25.218Z,4.88
2023-05-14T16:16:27.141Z,4.93
2023-05-14T16:26:29.021Z,13.48
2023-05-14T16:36:31.185Z,17.55
2023-05-14T16:46:33.403Z,15.40
2023-05-14T16:56:35.950Z,15.48
2023-05-14T17:06:37.745Z,17.52
2023-05-14T17:16:39.604Z,35.42
2023-05-14T17:26:41.431Z,9.82
2023-05-14T17:36:43.832Z,11.40
2023-05-14T17:46:46.176Z,19.50
2023-05-14T17:56:49.362Z,19.55
2023-05-14T18:06:51.259Z,23.25
2023-05-14T18:16:54.082Z,21.33
2023-05-14T18:26:55.967Z,28.25
2023-05-14T18:36:58.271Z,21.15
2023-05-14T18:47:00.197Z,12.05
2023-05-14T18:57:02.289Z,19.02
2023-05-14T19:07:04.249Z,25.13
2023-05-14T19:17:06.178Z,24.05
2023-05-14T19:27:08.580Z,22.45
2023-05-14T19:37:10.500Z,33.35
2023-05-14T19:47:12.498Z,46.88
2023-05-14T19:57:14.412Z,51.53
2023-05-14T20:07:16.340Z,40.55
2023-05-14T20:17:18.292Z,30.63
2023-05-14T20:27:20.412Z,51.08
2023-05-14T20:37:22.318Z,33.35
2023-05-14T20:47:25.488Z,27.88
2023-05-14T20:57:27.498Z,23.73
2023-05-14T21:07:29.383Z,15.10
2023-05-14T21:17:31.474Z,14.88
2023-05-14T21:27:33.697Z,12.55
2023-05-14T21:37:36.288Z,15.57
2023-05-14T21:47:38.312Z,19.60
2023-05-14T21:57:40.895Z,15.98
2023-05-14T22:07:42.779Z,17.85
2023-05-14T22:17:45.089Z,17.45
2023-05-14T22:27:46.904Z,15.63
2023-05-14T22:37:48.789Z,18.85
2023-05-14T22:47:50.649Z,23.13
2023-05-14T22:57:52.562Z,17.90
2023-05-14T23:07:54.513Z,17.40
2023-05-14T23:17:57.144Z,24.27
2023-05-14T23:27:59.077Z,20.30
2023-05-14T23:38:01.100Z,23.20
2023-05-14T23:48:03.206Z,21.98
2023-05-14T23:58:05.101Z,27.80
